sensor_id;sensor_type;location;lat;lon;timestamp;P1;durP1;ratioP1;P2;durP2;ratioP2
9722;SDS011;4900;49.306;8.500;2022-07-29T00:02:14;4.22;;;3.10;;
9722;SDS011;4900;49.306;8.500;2022-07-29T00:05:17;4.82;;;3.20;;
9722;SDS011;4900;49.306;8.500;2022-07-29T00:08:20;3.50;;;3.08;;
9722;SDS011;4900;49.306;8.500;2022-07-29T00:11:23;4.25;;;3.20;;
9722;SDS011;4900;49.306;8.500;2022-07-29T00:14:26;4.28;;;3.17;;
9722;SDS011;4900;49.306;8.500;2022-07-29T00:17:30;6.07;;;3.33;;
9722;SDS011;4900;49.306;8.500;2022-07-29T00:20:33;4.38;;;3.70;;
9722;SDS011;4900;49.306;8.500;2022-07-29T00:23:36;5.35;;;3.45;;
9722;SDS011;4900;49.306;8.500;2022-07-29T00:26:39;4.30;;;3.70;;
9722;SDS011;4900;49.306;8.500;2022-07-29T00:29:44;4.53;;;4.00;;
9722;SDS011;4900;49.306;8.500;2022-07-29T00:32:47;4.63;;;4.10;;
9722;SDS011;4900;49.306;8.500;2022-07-29T00:35:50;6.30;;;4.03;;
9722;SDS011;4900;49.306;8.500;2022-07-29T00:38:53;4.20;;;3.80;;
9722;SDS011;4900;49.306;8.500;2022-07-29T00:41:56;4.72;;;3.95;;
9722;SDS011;4900;49.306;8.500;2022-07-29T00:44:59;3.83;;;3.47;;
9722;SDS011;4900;49.306;8.500;2022-07-29T00:48:02;5.00;;;3.88;;
9722;SDS011;4900;49.306;8.500;2022-07-29T00:51:07;4.43;;;3.75;;
9722;SDS011;4900;49.306;8.500;2022-07-29T00:54:10;6.80;;;4.20;;
9722;SDS011;4900;49.306;8.500;2022-07-29T00:57:15;5.60;;;3.80;;
9722;SDS011;4900;49.306;8.500;2022-07-29T01:00:19;4.13;;;3.80;;
9722;SDS011;4900;49.306;8.500;2022-07-29T01:03:25;5.00;;;4.50;;
9722;SDS011;4900;49.306;8.500;2022-07-29T01:06:28;5.35;;;4.20;;
9722;SDS011;4900;49.306;8.500;2022-07-29T01:09:31;5.85;;;4.47;;
9722;SDS011;4900;49.306;8.500;2022-07-29T01:12:36;4.88;;;4.28;;
9722;SDS011;4900;49.306;8.500;2022-07-29T01:15:44;7.25;;;4.43;;
9722;SDS011;4900;49.306;8.500;2022-07-29T01:18:54;5.05;;;4.55;;
9722;SDS011;4900;49.306;8.500;2022-07-29T01:22:10;4.90;;;4.40;;
9722;SDS011;4900;49.306;8.500;2022-07-29T01:31:51;7.97;;;5.95;;
9722;SDS011;4900;49.306;8.500;2022-07-29T01:38:21;5.65;;;5.13;;
9722;SDS011;4900;49.306;8.500;2022-07-29T01:41:28;6.10;;;4.03;;
9722;SDS011;4900;49.306;8.500;2022-07-29T01:44:45;5.65;;;5.15;;
9722;SDS011;4900;49.306;8.500;2022-07-29T01:51:02;6.03;;;4.47;;
9722;SDS011;4900;49.306;8.500;2022-07-29T01:54:14;5.13;;;4.63;;
9722;SDS011;4900;49.306;8.500;2022-07-29T01:57:26;5.32;;;4.80;;
9722;SDS011;4900;49.306;8.500;2022-07-29T02:00:32;4.60;;;4.20;;
9722;SDS011;4900;49.306;8.500;2022-07-29T02:03:37;4.97;;;4.38;;
9722;SDS011;4900;49.306;8.500;2022-07-29T02:06:42;6.60;;;4.75;;
9722;SDS011;4900;49.306;8.500;2022-07-29T02:09:47;5.20;;;4.30;;
9722;SDS011;4900;49.306;8.500;2022-07-29T02:12:52;4.50;;;4.10;;
9722;SDS011;4900;49.306;8.500;2022-07-29T02:15:57;4.88;;;4.28;;
9722;SDS011;4900;49.306;8.500;2022-07-29T02:19:01;4.60;;;4.20;;
9722;SDS011;4900;49.306;8.500;2022-07-29T02:22:05;5.88;;;4.57;;
9722;SDS011;4900;49.306;8.500;2022-07-29T02:25:11;5.28;;;4.78;;
9722;SDS011;4900;49.306;8.500;2022-07-29T02:28:16;7.03;;;5.13;;
9722;SDS011;4900;49.306;8.500;2022-07-29T02:31:21;5.20;;;4.70;;
9722;SDS011;4900;49.306;8.500;2022-07-29T02:34:27;5.60;;;4.57;;
9722;SDS011;4900;49.306;8.500;2022-07-29T02:37:31;5.15;;;4.75;;
9722;SDS011;4900;49.306;8.500;2022-07-29T02:40:36;5.20;;;4.70;;
9722;SDS011;4900;49.306;8.500;2022-07-29T02:43:43;5.60;;;4.88;;
9722;SDS011;4900;49.306;8.500;2022-07-29T02:50:11;6.20;;;5.00;;
9722;SDS011;4900;49.306;8.500;2022-07-29T02:53:20;6.10;;;5.50;;
9722;SDS011;4900;49.306;8.500;2022-07-29T02:56:27;6.70;;;5.60;;
9722;SDS011;4900;49.306;8.500;2022-07-29T02:59:37;5.50;;;4.85;;
9722;SDS011;4900;49.306;8.500;2022-07-29T03:02:44;7.72;;;5.32;;
9722;SDS011;4900;49.306;8.500;2022-07-29T03:05:48;6.47;;;5.45;;
9722;SDS011;4900;49.306;8.500;2022-07-29T03:08:51;7.03;;;4.75;;
9722;SDS011;4900;49.306;8.500;2022-07-29T03:11:54;5.25;;;4.75;;
9722;SDS011;4900;49.306;8.500;2022-07-29T03:14:59;7.15;;;4.93;;
9722;SDS011;4900;49.306;8.500;2022-07-29T03:18:04;6.20;;;5.05;;
9722;SDS011;4900;49.306;8.500;2022-07-29T03:21:08;6.72;;;4.72;;
9722;SDS011;4900;49.306;8.500;2022-07-29T03:24:23;6.18;;;5.35;;
9722;SDS011;4900;49.306;8.500;2022-07-29T03:27:37;6.63;;;5.00;;
9722;SDS011;4900;49.306;8.500;2022-07-29T03:30:39;9.85;;;6.28;;
9722;SDS011;4900;49.306;8.500;2022-07-29T03:33:42;7.43;;;5.90;;
9722;SDS011;4900;49.306;8.500;2022-07-29T03:36:45;5.85;;;5.13;;
9722;SDS011;4900;49.306;8.500;2022-07-29T03:39:49;7.18;;;5.40;;
9722;SDS011;4900;49.306;8.500;2022-07-29T03:42:54;5.30;;;4.80;;
9722;SDS011;4900;49.306;8.500;2022-07-29T03:45:58;6.72;;;5.20;;
9722;SDS011;4900;49.306;8.500;2022-07-29T03:49:04;6.97;;;5.20;;
9722;SDS011;4900;49.306;8.500;2022-07-29T03:52:10;8.02;;;5.38;;
9722;SDS011;4900;49.306;8.500;2022-07-29T03:55:14;8.77;;;4.80;;
9722;SDS011;4900;49.306;8.500;2022-07-29T03:58:18;8.15;;;6.43;;
9722;SDS011;4900;49.306;8.500;2022-07-29T04:01:22;5.88;;;5.30;;
9722;SDS011;4900;49.306;8.500;2022-07-29T04:04:27;5.97;;;5.38;;
9722;SDS011;4900;49.306;8.500;2022-07-29T04:07:30;9.05;;;5.65;;
9722;SDS011;4900;49.306;8.500;2022-07-29T04:10:33;6.13;;;5.50;;
9722;SDS011;4900;49.306;8.500;2022-07-29T04:13:36;6.40;;;5.80;;
9722;SDS011;4900;49.306;8.500;2022-07-29T04:16:39;9.00;;;5.60;;
9722;SDS011;4900;49.306;8.500;2022-07-29T04:19:42;7.95;;;6.10;;
9722;SDS011;4900;49.306;8.500;2022-07-29T04:22:45;5.70;;;5.20;;
9722;SDS011;4900;49.306;8.500;2022-07-29T04:25:48;6.55;;;5.95;;
9722;SDS011;4900;49.306;8.500;2022-07-29T04:28:52;5.93;;;5.32;;
9722;SDS011;4900;49.306;8.500;2022-07-29T04:31:55;6.82;;;5.50;;
9722;SDS011;4900;49.306;8.500;2022-07-29T04:34:57;5.55;;;5.05;;
9722;SDS011;4900;49.306;8.500;2022-07-29T04:38:00;6.90;;;6.10;;
9722;SDS011;4900;49.306;8.500;2022-07-29T04:41:04;6.68;;;5.47;;
9722;SDS011;4900;49.306;8.500;2022-07-29T04:44:09;8.20;;;6.28;;
9722;SDS011;4900;49.306;8.500;2022-07-29T04:47:12;6.28;;;5.38;;
9722;SDS011;4900;49.306;8.500;2022-07-29T04:50:15;7.47;;;5.80;;
9722;SDS011;4900;49.306;8.500;2022-07-29T04:53:19;10.82;;;6.53;;
9722;SDS011;4900;49.306;8.500;2022-07-29T04:56:22;6.22;;;4.90;;
9722;SDS011;4900;49.306;8.500;2022-07-29T04:59:25;5.82;;;4.95;;
9722;SDS011;4900;49.306;8.500;2022-07-29T05:02:29;8.27;;;5.55;;
9722;SDS011;4900;49.306;8.500;2022-07-29T05:05:32;5.82;;;5.15;;
9722;SDS011;4900;49.306;8.500;2022-07-29T05:08:35;6.95;;;6.00;;
9722;SDS011;4900;49.306;8.500;2022-07-29T05:11:39;7.90;;;6.13;;
9722;SDS011;4900;49.306;8.500;2022-07-29T05:14:42;5.72;;;4.80;;
9722;SDS011;4900;49.306;8.500;2022-07-29T05:17:46;6.25;;;5.65;;
9722;SDS011;4900;49.306;8.500;2022-07-29T05:20:48;5.88;;;5.28;;
9722;SDS011;4900;49.306;8.500;2022-07-29T05:23:52;4.93;;;4.43;;
9722;SDS011;4900;49.306;8.500;2022-07-29T05:26:55;8.02;;;5.22;;
9722;SDS011;4900;49.306;8.500;2022-07-29T05:29:58;6.47;;;4.78;;
9722;SDS011;4900;49.306;8.500;2022-07-29T05:33:01;6.03;;;5.20;;
9722;SDS011;4900;49.306;8.500;2022-07-29T05:36:04;6.05;;;5.03;;
9722;SDS011;4900;49.306;8.500;2022-07-29T05:39:10;5.55;;;5.05;;
9722;SDS011;4900;49.306;8.500;2022-07-29T05:42:13;5.00;;;4.50;;
9722;SDS011;4900;49.306;8.500;2022-07-29T05:45:17;5.30;;;4.80;;
9722;SDS011;4900;49.306;8.500;2022-07-29T05:48:19;5.72;;;5.22;;
9722;SDS011;4900;49.306;8.500;2022-07-29T05:51:23;5.35;;;4.57;;
9722;SDS011;4900;49.306;8.500;2022-07-29T05:54:26;4.95;;;4.53;;
9722;SDS011;4900;49.306;8.500;2022-07-29T05:57:29;5.07;;;4.20;;
9722;SDS011;4900;49.306;8.500;2022-07-29T06:00:32;4.90;;;4.40;;
9722;SDS011;4900;49.306;8.500;2022-07-29T06:03:35;4.80;;;4.13;;
9722;SDS011;4900;49.306;8.500;2022-07-29T06:06:40;4.60;;;4.20;;
9722;SDS011;4900;49.306;8.500;2022-07-29T06:09:43;4.40;;;4.00;;
9722;SDS011;4900;49.306;8.500;2022-07-29T06:12:46;4.70;;;4.20;;
9722;SDS011;4900;49.306;8.500;2022-07-29T06:15:49;5.07;;;4.10;;
9722;SDS011;4900;49.306;8.500;2022-07-29T06:18:52;6.50;;;4.40;;
9722;SDS011;4900;49.306;8.500;2022-07-29T06:21:55;5.63;;;4.13;;
9722;SDS011;4900;49.306;8.500;2022-07-29T06:24:58;5.03;;;4.15;;
9722;SDS011;4900;49.306;8.500;2022-07-29T06:28:00;4.25;;;3.85;;
9722;SDS011;4900;49.306;8.500;2022-07-29T06:31:04;4.55;;;3.70;;
9722;SDS011;4900;49.306;8.500;2022-07-29T06:34:08;5.57;;;4.03;;
9722;SDS011;4900;49.306;8.500;2022-07-29T06:37:11;4.60;;;3.72;;
9722;SDS011;4900;49.306;8.500;2022-07-29T06:40:14;4.47;;;4.07;;
9722;SDS011;4900;49.306;8.500;2022-07-29T06:43:36;4.15;;;3.75;;
9722;SDS011;4900;49.306;8.500;2022-07-29T06:46:41;4.95;;;4.25;;
9722;SDS011;4900;49.306;8.500;2022-07-29T06:49:44;4.72;;;4.15;;
9722;SDS011;4900;49.306;8.500;2022-07-29T06:52:47;5.80;;;4.40;;
9722;SDS011;4900;49.306;8.500;2022-07-29T06:55:50;4.65;;;4.25;;
9722;SDS011;4900;49.306;8.500;2022-07-29T06:58:53;7.28;;;4.80;;
9722;SDS011;4900;49.306;8.500;2022-07-29T07:01:56;5.07;;;4.22;;
9722;SDS011;4900;49.306;8.500;2022-07-29T07:04:59;4.78;;;4.28;;
9722;SDS011;4900;49.306;8.500;2022-07-29T07:08:02;4.93;;;4.53;;
9722;SDS011;4900;49.306;8.500;2022-07-29T07:11:05;4.65;;;4.22;;
9722;SDS011;4900;49.306;8.500;2022-07-29T07:14:09;6.55;;;4.18;;
9722;SDS011;4900;49.306;8.500;2022-07-29T07:17:12;6.18;;;4.47;;
9722;SDS011;4900;49.306;8.500;2022-07-29T07:20:16;4.50;;;4.10;;
9722;SDS011;4900;49.306;8.500;2022-07-29T07:23:19;6.18;;;4.10;;
9722;SDS011;4900;49.306;8.500;2022-07-29T07:26:22;5.22;;;4.65;;
9722;SDS011;4900;49.306;8.500;2022-07-29T07:29:25;5.43;;;4.65;;
9722;SDS011;4900;49.306;8.500;2022-07-29T07:32:28;6.50;;;4.43;;
9722;SDS011;4900;49.306;8.500;2022-07-29T07:35:31;5.60;;;4.32;;
9722;SDS011;4900;49.306;8.500;2022-07-29T07:38:35;4.82;;;4.43;;
9722;SDS011;4900;49.306;8.500;2022-07-29T07:41:38;7.05;;;4.55;;
9722;SDS011;4900;49.306;8.500;2022-07-29T07:44:41;4.72;;;4.28;;
9722;SDS011;4900;49.306;8.500;2022-07-29T07:47:44;5.20;;;4.20;;
9722;SDS011;4900;49.306;8.500;2022-07-29T07:50:47;5.03;;;4.50;;
9722;SDS011;4900;49.306;8.500;2022-07-29T07:53:52;5.93;;;4.43;;
9722;SDS011;4900;49.306;8.500;2022-07-29T07:56:54;5.15;;;4.28;;
9722;SDS011;4900;49.306;8.500;2022-07-29T07:59:57;6.45;;;4.43;;
9722;SDS011;4900;49.306;8.500;2022-07-29T08:03:01;4.55;;;4.15;;
9722;SDS011;4900;49.306;8.500;2022-07-29T08:06:05;4.60;;;4.20;;
9722;SDS011;4900;49.306;8.500;2022-07-29T08:09:09;5.93;;;4.78;;
9722;SDS011;4900;49.306;8.500;2022-07-29T08:12:12;6.03;;;5.43;;
9722;SDS011;4900;49.306;8.500;2022-07-29T08:15:15;5.07;;;4.43;;
9722;SDS011;4900;49.306;8.500;2022-07-29T08:18:17;4.60;;;4.20;;
9722;SDS011;4900;49.306;8.500;2022-07-29T08:21:20;6.30;;;4.90;;
9722;SDS011;4900;49.306;8.500;2022-07-29T08:24:23;3.88;;;3.58;;
9722;SDS011;4900;49.306;8.500;2022-07-29T08:27:46;6.72;;;4.30;;
9722;SDS011;4900;49.306;8.500;2022-07-29T08:30:50;6.88;;;4.30;;
9722;SDS011;4900;49.306;8.500;2022-07-29T08:33:52;5.60;;;4.15;;
9722;SDS011;4900;49.306;8.500;2022-07-29T08:36:55;5.13;;;4.63;;
9722;SDS011;4900;49.306;8.500;2022-07-29T08:39:59;4.28;;;3.80;;
9722;SDS011;4900;49.306;8.500;2022-07-29T08:43:06;8.45;;;4.70;;
9722;SDS011;4900;49.306;8.500;2022-07-29T08:46:11;6.93;;;4.20;;
9722;SDS011;4900;49.306;8.500;2022-07-29T08:49:13;5.03;;;3.75;;
9722;SDS011;4900;49.306;8.500;2022-07-29T08:52:17;4.25;;;3.85;;
9722;SDS011;4900;49.306;8.500;2022-07-29T08:55:20;4.85;;;4.30;;
9722;SDS011;4900;49.306;8.500;2022-07-29T08:58:24;5.35;;;3.78;;
9722;SDS011;4900;49.306;8.500;2022-07-29T09:01:29;4.53;;;3.90;;
9722;SDS011;4900;49.306;8.500;2022-07-29T09:04:34;6.60;;;4.20;;
9722;SDS011;4900;49.306;8.500;2022-07-29T09:07:38;4.15;;;3.75;;
9722;SDS011;4900;49.306;8.500;2022-07-29T09:10:42;6.53;;;4.68;;
9722;SDS011;4900;49.306;8.500;2022-07-29T09:13:46;4.60;;;4.20;;
9722;SDS011;4900;49.306;8.500;2022-07-29T09:19:56;6.22;;;4.30;;
9722;SDS011;4900;49.306;8.500;2022-07-29T09:23:11;5.10;;;4.07;;
9722;SDS011;4900;49.306;8.500;2022-07-29T09:26:15;4.50;;;3.90;;
9722;SDS011;4900;49.306;8.500;2022-07-29T09:29:20;4.38;;;3.97;;
9722;SDS011;4900;49.306;8.500;2022-07-29T09:32:25;4.60;;;4.13;;
9722;SDS011;4900;49.306;8.500;2022-07-29T09:35:29;5.35;;;4.28;;
9722;SDS011;4900;49.306;8.500;2022-07-29T09:38:33;5.72;;;3.88;;
9722;SDS011;4900;49.306;8.500;2022-07-29T09:45:28;4.68;;;4.28;;
9722;SDS011;4900;49.306;8.500;2022-07-29T09:48:36;4.20;;;3.90;;
9722;SDS011;4900;49.306;8.500;2022-07-29T09:51:38;4.28;;;3.60;;
9722;SDS011;4900;49.306;8.500;2022-07-29T09:54:43;5.95;;;4.10;;
9722;SDS011;4900;49.306;8.500;2022-07-29T09:57:46;4.85;;;4.05;;
9722;SDS011;4900;49.306;8.500;2022-07-29T10:00:50;5.07;;;3.60;;
9722;SDS011;4900;49.306;8.500;2022-07-29T10:03:54;5.20;;;4.30;;
9722;SDS011;4900;49.306;8.500;2022-07-29T10:07:01;5.38;;;4.13;;
9722;SDS011;4900;49.306;8.500;2022-07-29T10:10:05;5.40;;;3.92;;
9722;SDS011;4900;49.306;8.500;2022-07-29T10:13:10;4.82;;;3.88;;
9722;SDS011;4900;49.306;8.500;2022-07-29T10:16:15;9.07;;;4.63;;
9722;SDS011;4900;49.306;8.500;2022-07-29T10:19:18;4.50;;;4.20;;
9722;SDS011;4900;49.306;8.500;2022-07-29T10:22:22;4.85;;;3.83;;
9722;SDS011;4900;49.306;8.500;2022-07-29T10:25:26;6.53;;;4.65;;
9722;SDS011;4900;49.306;8.500;2022-07-29T10:28:30;5.57;;;4.25;;
9722;SDS011;4900;49.306;8.500;2022-07-29T10:31:37;6.72;;;4.15;;
9722;SDS011;4900;49.306;8.500;2022-07-29T10:42:22;4.60;;;4.07;;
9722;SDS011;4900;49.306;8.500;2022-07-29T10:45:27;4.90;;;4.20;;
9722;SDS011;4900;49.306;8.500;2022-07-29T10:48:31;5.18;;;4.07;;
9722;SDS011;4900;49.306;8.500;2022-07-29T10:54:53;5.63;;;4.30;;
9722;SDS011;4900;49.306;8.500;2022-07-29T11:01:28;6.38;;;4.63;;
9722;SDS011;4900;49.306;8.500;2022-07-29T11:20:59;4.60;;;4.20;;
9722;SDS011;4900;49.306;8.500;2022-07-29T11:24:12;6.28;;;4.25;;
9722;SDS011;4900;49.306;8.500;2022-07-29T11:27:17;4.68;;;4.18;;
9722;SDS011;4900;49.306;8.500;2022-07-29T11:33:52;4.85;;;3.83;;
9722;SDS011;4900;49.306;8.500;2022-07-29T11:37:13;5.18;;;4.10;;
9722;SDS011;4900;49.306;8.500;2022-07-29T11:40:17;3.72;;;3.42;;
9722;SDS011;4900;49.306;8.500;2022-07-29T11:43:45;5.22;;;3.80;;
9722;SDS011;4900;49.306;8.500;2022-07-29T11:46:50;5.55;;;3.72;;
9722;SDS011;4900;49.306;8.500;2022-07-29T11:49:54;7.47;;;3.90;;
9722;SDS011;4900;49.306;8.500;2022-07-29T11:53:00;4.57;;;3.85;;
9722;SDS011;4900;49.306;8.500;2022-07-29T11:56:04;4.43;;;3.67;;
9722;SDS011;4900;49.306;8.500;2022-07-29T11:59:11;5.60;;;3.70;;
9722;SDS011;4900;49.306;8.500;2022-07-29T12:02:15;6.97;;;3.85;;
9722;SDS011;4900;49.306;8.500;2022-07-29T12:05:18;6.38;;;4.10;;
9722;SDS011;4900;49.306;8.500;2022-07-29T12:08:23;4.88;;;3.80;;
9722;SDS011;4900;49.306;8.500;2022-07-29T12:11:28;4.20;;;3.63;;
9722;SDS011;4900;49.306;8.500;2022-07-29T12:14:32;6.72;;;3.85;;
9722;SDS011;4900;49.306;8.500;2022-07-29T12:17:35;4.88;;;3.85;;
9722;SDS011;4900;49.306;8.500;2022-07-29T12:20:39;4.32;;;3.92;;
9722;SDS011;4900;49.306;8.500;2022-07-29T12:23:42;5.35;;;3.60;;
9722;SDS011;4900;49.306;8.500;2022-07-29T12:26:57;4.10;;;3.50;;
9722;SDS011;4900;49.306;8.500;2022-07-29T12:30:03;5.85;;;4.00;;
9722;SDS011;4900;49.306;8.500;2022-07-29T12:36:30;7.45;;;3.80;;
9722;SDS011;4900;49.306;8.500;2022-07-29T12:39:34;4.10;;;3.70;;
9722;SDS011;4900;49.306;8.500;2022-07-29T12:42:38;4.32;;;3.65;;
9722;SDS011;4900;49.306;8.500;2022-07-29T12:45:44;6.20;;;3.67;;
9722;SDS011;4900;49.306;8.500;2022-07-29T12:48:53;5.47;;;3.80;;
9722;SDS011;4900;49.306;8.500;2022-07-29T12:51:57;4.68;;;3.85;;
9722;SDS011;4900;49.306;8.500;2022-07-29T12:55:00;4.78;;;4.25;;
9722;SDS011;4900;49.306;8.500;2022-07-29T12:58:04;4.40;;;4.00;;
9722;SDS011;4900;49.306;8.500;2022-07-29T13:04:25;4.88;;;4.47;;
9722;SDS011;4900;49.306;8.500;2022-07-29T13:07:31;5.00;;;4.30;;
9722;SDS011;4900;49.306;8.500;2022-07-29T13:10:37;4.75;;;4.07;;
9722;SDS011;4900;49.306;8.500;2022-07-29T13:13:51;4.75;;;4.35;;
9722;SDS011;4900;49.306;8.500;2022-07-29T13:17:02;6.13;;;4.38;;
9722;SDS011;4900;49.306;8.500;2022-07-29T13:20:16;4.97;;;4.43;;
9722;SDS011;4900;49.306;8.500;2022-07-29T13:23:19;4.30;;;3.90;;
9722;SDS011;4900;49.306;8.500;2022-07-29T13:26:22;5.22;;;4.38;;
9722;SDS011;4900;49.306;8.500;2022-07-29T13:29:25;4.55;;;4.15;;
9722;SDS011;4900;49.306;8.500;2022-07-29T13:32:29;4.88;;;4.00;;
9722;SDS011;4900;49.306;8.500;2022-07-29T13:35:33;4.75;;;3.92;;
9722;SDS011;4900;49.306;8.500;2022-07-29T13:38:36;4.28;;;3.88;;
9722;SDS011;4900;49.306;8.500;2022-07-29T13:41:39;3.83;;;3.50;;
9722;SDS011;4900;49.306;8.500;2022-07-29T13:44:42;3.60;;;3.28;;
9722;SDS011;4900;49.306;8.500;2022-07-29T13:47:45;3.72;;;3.33;;
9722;SDS011;4900;49.306;8.500;2022-07-29T13:50:48;3.30;;;3.00;;
9722;SDS011;4900;49.306;8.500;2022-07-29T13:53:52;3.72;;;3.25;;
9722;SDS011;4900;49.306;8.500;2022-07-29T13:56:55;4.72;;;3.50;;
9722;SDS011;4900;49.306;8.500;2022-07-29T13:59:58;6.60;;;3.42;;
9722;SDS011;4900;49.306;8.500;2022-07-29T14:03:01;5.35;;;3.28;;
9722;SDS011;4900;49.306;8.500;2022-07-29T14:06:04;3.72;;;3.40;;
9722;SDS011;4900;49.306;8.500;2022-07-29T14:09:07;5.20;;;3.75;;
9722;SDS011;4900;49.306;8.500;2022-07-29T14:12:11;3.97;;;3.67;;
9722;SDS011;4900;49.306;8.500;2022-07-29T14:15:14;4.75;;;3.40;;
9722;SDS011;4900;49.306;8.500;2022-07-29T14:18:17;5.60;;;3.80;;
9722;SDS011;4900;49.306;8.500;2022-07-29T14:21:20;5.43;;;3.75;;
9722;SDS011;4900;49.306;8.500;2022-07-29T14:24:23;4.22;;;3.40;;
9722;SDS011;4900;49.306;8.500;2022-07-29T14:27:26;3.70;;;3.20;;
9722;SDS011;4900;49.306;8.500;2022-07-29T14:30:29;3.70;;;3.40;;
9722;SDS011;4900;49.306;8.500;2022-07-29T14:33:32;3.92;;;3.60;;
9722;SDS011;4900;49.306;8.500;2022-07-29T14:36:35;4.40;;;4.00;;
9722;SDS011;4900;49.306;8.500;2022-07-29T14:39:38;4.72;;;4.18;;
9722;SDS011;4900;49.306;8.500;2022-07-29T14:42:41;4.60;;;4.20;;
9722;SDS011;4900;49.306;8.500;2022-07-29T14:45:44;4.82;;;3.47;;
9722;SDS011;4900;49.306;8.500;2022-07-29T14:48:46;3.97;;;3.30;;
9722;SDS011;4900;49.306;8.500;2022-07-29T14:51:49;5.22;;;2.70;;
9722;SDS011;4900;49.306;8.500;2022-07-29T14:54:54;4.63;;;2.60;;
9722;SDS011;4900;49.306;8.500;2022-07-29T14:57:56;3.92;;;2.75;;
9722;SDS011;4900;49.306;8.500;2022-07-29T15:01:01;3.53;;;2.85;;
9722;SDS011;4900;49.306;8.500;2022-07-29T15:04:04;4.97;;;2.92;;
9722;SDS011;4900;49.306;8.500;2022-07-29T15:07:07;2.90;;;2.50;;
9722;SDS011;4900;49.306;8.500;2022-07-29T15:10:11;4.13;;;2.60;;
9722;SDS011;4900;49.306;8.500;2022-07-29T15:13:14;5.30;;;2.97;;
9722;SDS011;4900;49.306;8.500;2022-07-29T15:16:17;2.95;;;2.60;;
9722;SDS011;4900;49.306;8.500;2022-07-29T15:19:20;4.07;;;2.30;;
9722;SDS011;4900;49.306;8.500;2022-07-29T15:22:23;5.00;;;2.50;;
9722;SDS011;4900;49.306;8.500;2022-07-29T15:25:25;3.78;;;2.28;;
9722;SDS011;4900;49.306;8.500;2022-07-29T15:28:29;3.33;;;2.50;;
9722;SDS011;4900;49.306;8.500;2022-07-29T15:31:32;2.65;;;2.45;;
9722;SDS011;4900;49.306;8.500;2022-07-29T15:34:35;2.35;;;2.15;;
9722;SDS011;4900;49.306;8.500;2022-07-29T15:37:39;4.35;;;2.50;;
9722;SDS011;4900;49.306;8.500;2022-07-29T15:40:42;4.55;;;3.10;;
9722;SDS011;4900;49.306;8.500;2022-07-29T15:43:47;6.82;;;3.08;;
9722;SDS011;4900;49.306;8.500;2022-07-29T15:46:51;4.13;;;2.70;;
9722;SDS011;4900;49.306;8.500;2022-07-29T15:50:06;3.65;;;2.22;;
9722;SDS011;4900;49.306;8.500;2022-07-29T15:53:14;2.88;;;2.53;;
9722;SDS011;4900;49.306;8.500;2022-07-29T15:56:17;3.47;;;2.60;;
9722;SDS011;4900;49.306;8.500;2022-07-29T15:59:21;3.30;;;2.40;;
9722;SDS011;4900;49.306;8.500;2022-07-29T16:02:24;2.67;;;2.30;;
9722;SDS011;4900;49.306;8.500;2022-07-29T16:05:28;4.25;;;2.70;;
9722;SDS011;4900;49.306;8.500;2022-07-29T16:08:31;4.05;;;2.70;;
9722;SDS011;4900;49.306;8.500;2022-07-29T16:11:34;2.97;;;2.22;;
9722;SDS011;4900;49.306;8.500;2022-07-29T16:14:37;2.75;;;2.22;;
9722;SDS011;4900;49.306;8.500;2022-07-29T16:17:40;2.80;;;2.50;;
9722;SDS011;4900;49.306;8.500;2022-07-29T16:20:43;2.50;;;2.28;;
9722;SDS011;4900;49.306;8.500;2022-07-29T16:23:47;3.65;;;2.33;;
9722;SDS011;4900;49.306;8.500;2022-07-29T16:26:50;3.38;;;2.25;;
9722;SDS011;4900;49.306;8.500;2022-07-29T16:29:54;2.85;;;2.20;;
9722;SDS011;4900;49.306;8.500;2022-07-29T16:32:57;4.72;;;2.30;;
9722;SDS011;4900;49.306;8.500;2022-07-29T16:36:00;3.60;;;2.20;;
9722;SDS011;4900;49.306;8.500;2022-07-29T16:39:03;4.43;;;2.15;;
9722;SDS011;4900;49.306;8.500;2022-07-29T16:42:07;7.03;;;2.40;;
9722;SDS011;4900;49.306;8.500;2022-07-29T16:45:09;2.78;;;2.03;;
9722;SDS011;4900;49.306;8.500;2022-07-29T16:48:13;5.30;;;2.30;;
9722;SDS011;4900;49.306;8.500;2022-07-29T16:51:17;2.85;;;1.90;;
9722;SDS011;4900;49.306;8.500;2022-07-29T16:54:20;4.22;;;2.00;;
9722;SDS011;4900;49.306;8.500;2022-07-29T16:57:23;4.68;;;2.67;;
9722;SDS011;4900;49.306;8.500;2022-07-29T17:00:26;2.40;;;2.20;;
9722;SDS011;4900;49.306;8.500;2022-07-29T17:03:29;4.68;;;2.40;;
9722;SDS011;4900;49.306;8.500;2022-07-29T17:06:36;2.50;;;1.92;;
9722;SDS011;4900;49.306;8.500;2022-07-29T17:09:41;1.77;;;1.63;;
9722;SDS011;4900;49.306;8.500;2022-07-29T17:12:44;2.20;;;1.90;;
9722;SDS011;4900;49.306;8.500;2022-07-29T17:15:48;4.25;;;2.28;;
9722;SDS011;4900;49.306;8.500;2022-07-29T17:18:52;2.75;;;2.17;;
9722;SDS011;4900;49.306;8.500;2022-07-29T17:21:56;2.58;;;1.95;;
9722;SDS011;4900;49.306;8.500;2022-07-29T17:24:59;3.00;;;2.00;;
9722;SDS011;4900;49.306;8.500;2022-07-29T17:28:03;4.25;;;2.15;;
9722;SDS011;4900;49.306;8.500;2022-07-29T17:31:06;3.67;;;2.20;;
9722;SDS011;4900;49.306;8.500;2022-07-29T17:34:10;3.63;;;1.92;;
9722;SDS011;4900;49.306;8.500;2022-07-29T17:37:13;2.25;;;1.98;;
9722;SDS011;4900;49.306;8.500;2022-07-29T17:40:17;2.92;;;2.10;;
9722;SDS011;4900;49.306;8.500;2022-07-29T17:43:20;2.25;;;1.88;;
9722;SDS011;4900;49.306;8.500;2022-07-29T17:46:23;2.58;;;2.10;;
9722;SDS011;4900;49.306;8.500;2022-07-29T17:49:28;3.92;;;2.10;;
9722;SDS011;4900;49.306;8.500;2022-07-29T17:52:31;2.97;;;2.00;;
9722;SDS011;4900;49.306;8.500;2022-07-29T17:55:34;3.85;;;2.00;;
9722;SDS011;4900;49.306;8.500;2022-07-29T17:58:37;3.72;;;2.20;;
9722;SDS011;4900;49.306;8.500;2022-07-29T18:01:41;3.90;;;2.10;;
9722;SDS011;4900;49.306;8.500;2022-07-29T18:04:44;4.18;;;2.10;;
9722;SDS011;4900;49.306;8.500;2022-07-29T18:07:47;4.25;;;2.00;;
9722;SDS011;4900;49.306;8.500;2022-07-29T18:10:49;4.28;;;2.50;;
9722;SDS011;4900;49.306;8.500;2022-07-29T18:13:52;3.22;;;2.40;;
9722;SDS011;4900;49.306;8.500;2022-07-29T18:16:55;3.58;;;2.47;;
9722;SDS011;4900;49.306;8.500;2022-07-29T18:19:58;4.43;;;2.20;;
9722;SDS011;4900;49.306;8.500;2022-07-29T18:23:01;2.72;;;2.13;;
9722;SDS011;4900;49.306;8.500;2022-07-29T18:26:05;3.05;;;2.22;;
9722;SDS011;4900;49.306;8.500;2022-07-29T18:29:08;2.40;;;2.15;;
9722;SDS011;4900;49.306;8.500;2022-07-29T18:32:12;2.47;;;2.28;;
9722;SDS011;4900;49.306;8.500;2022-07-29T18:35:15;3.25;;;2.30;;
9722;SDS011;4900;49.306;8.500;2022-07-29T18:38:19;2.53;;;2.10;;
9722;SDS011;4900;49.306;8.500;2022-07-29T18:41:23;3.67;;;2.22;;
9722;SDS011;4900;49.306;8.500;2022-07-29T18:44:26;5.63;;;2.40;;
9722;SDS011;4900;49.306;8.500;2022-07-29T18:47:30;4.68;;;2.50;;
9722;SDS011;4900;49.306;8.500;2022-07-29T18:50:33;2.65;;;2.10;;
9722;SDS011;4900;49.306;8.500;2022-07-29T18:53:37;2.83;;;2.20;;
9722;SDS011;4900;49.306;8.500;2022-07-29T18:56:41;2.38;;;2.17;;
9722;SDS011;4900;49.306;8.500;2022-07-29T18:59:44;4.40;;;2.33;;
9722;SDS011;4900;49.306;8.500;2022-07-29T19:02:47;3.22;;;2.35;;
9722;SDS011;4900;49.306;8.500;2022-07-29T19:05:50;3.35;;;2.25;;
9722;SDS011;4900;49.306;8.500;2022-07-29T19:08:52;5.10;;;2.30;;
9722;SDS011;4900;49.306;8.500;2022-07-29T19:11:56;4.82;;;2.38;;
9722;SDS011;4900;49.306;8.500;2022-07-29T19:14:59;5.40;;;2.40;;
9722;SDS011;4900;49.306;8.500;2022-07-29T19:18:02;5.00;;;2.55;;
9722;SDS011;4900;49.306;8.500;2022-07-29T19:21:05;3.97;;;3.13;;
9722;SDS011;4900;49.306;8.500;2022-07-29T19:24:08;3.35;;;2.90;;
9722;SDS011;4900;49.306;8.500;2022-07-29T19:27:12;4.90;;;3.03;;
9722;SDS011;4900;49.306;8.500;2022-07-29T19:30:15;3.40;;;3.10;;
9722;SDS011;4900;49.306;8.500;2022-07-29T19:33:18;5.22;;;3.70;;
9722;SDS011;4900;49.306;8.500;2022-07-29T19:36:22;3.40;;;3.10;;
9722;SDS011;4900;49.306;8.500;2022-07-29T19:39:25;3.85;;;3.47;;
9722;SDS011;4900;49.306;8.500;2022-07-29T19:42:28;3.70;;;3.38;;
9722;SDS011;4900;49.306;8.500;2022-07-29T19:45:31;3.75;;;3.45;;
9722;SDS011;4900;49.306;8.500;2022-07-29T19:48:35;3.50;;;3.20;;
9722;SDS011;4900;49.306;8.500;2022-07-29T19:51:39;3.63;;;3.33;;
9722;SDS011;4900;49.306;8.500;2022-07-29T19:54:43;3.63;;;3.30;;
9722;SDS011;4900;49.306;8.500;2022-07-29T19:57:46;3.53;;;3.22;;
9722;SDS011;4900;49.306;8.500;2022-07-29T20:00:48;3.95;;;3.33;;
9722;SDS011;4900;49.306;8.500;2022-07-29T20:03:51;3.95;;;3.60;;
9722;SDS011;4900;49.306;8.500;2022-07-29T20:06:55;3.65;;;3.30;;
9722;SDS011;4900;49.306;8.500;2022-07-29T20:10:02;3.38;;;3.08;;